createdAt,value
2019-05-17T00:00:37.472Z,1.47
2019-05-17T00:03:07.147Z,1.72
2019-05-17T00:05:37.466Z,1.80
2019-05-17T00:08:07.769Z,1.67
2019-05-17T00:10:37.687Z,1.85
2019-05-17T00:13:07.623Z,1.47
2019-05-17T00:15:37.110Z,1.80
2019-05-17T00:18:06.688Z,1.75
2019-05-17T00:20:37.544Z,1.70
2019-05-17T00:23:07.127Z,1.87
2019-05-17T00:25:36.832Z,1.60
2019-05-17T00:28:07.432Z,1.77
2019-05-17T00:30:37.384Z,1.62
2019-05-17T00:33:07.844Z,1.60
2019-05-17T00:35:37.797Z,1.30
2019-05-17T00:38:07.491Z,1.60
2019-05-17T00:40:36.741Z,1.25
2019-05-17T00:43:06.695Z,1.80
2019-05-17T00:45:37.584Z,2.05
2019-05-17T00:48:06.796Z,1.70
2019-05-17T00:50:37.941Z,2.00
2019-05-17T00:53:07.318Z,1.77
2019-05-17T00:55:36.649Z,1.70
2019-05-17T00:58:06.835Z,1.90
2019-05-17T01:00:37.606Z,1.80
2019-05-17T01:03:07.273Z,1.98
2019-05-17T01:05:36.891Z,1.90
2019-05-17T01:08:07.180Z,2.00
2019-05-17T01:10:37.002Z,1.75
2019-05-17T01:13:06.932Z,1.98
2019-05-17T01:15:36.968Z,1.82
2019-05-17T01:18:07.287Z,2.08
2019-05-17T01:20:37.141Z,1.85
2019-05-17T01:23:07.636Z,2.10
2019-05-17T01:25:37.669Z,1.98
2019-05-17T01:28:07.589Z,2.42
2019-05-17T01:30:37.494Z,1.52
2019-05-17T01:33:06.854Z,1.65
2019-05-17T01:35:37.409Z,1.95
2019-05-17T01:38:07.418Z,2.15
2019-05-17T01:40:37.380Z,1.77
2019-05-17T01:43:07.837Z,1.70
2019-05-17T01:45:36.778Z,1.70
2019-05-17T01:48:07.294Z,1.72
2019-05-17T01:50:37.360Z,1.75
2019-05-17T01:53:07.485Z,1.40
2019-05-17T01:55:37.575Z,1.65
2019-05-17T01:58:07.545Z,1.80
2019-05-17T02:00:37.581Z,2.10
2019-05-17T02:03:07.294Z,1.45
2019-05-17T02:05:37.191Z,1.57
2019-05-17T02:08:07.007Z,1.50
2019-05-17T02:10:37.557Z,1.80
2019-05-17T02:13:06.851Z,1.60
2019-05-17T02:15:37.717Z,1.70
2019-05-17T02:18:07.057Z,1.85
2019-05-17T02:20:37.302Z,2.77
2019-05-17T02:23:07.413Z,2.40
2019-05-17T02:25:37.035Z,3.05
2019-05-17T02:28:06.216Z,2.70
2019-05-17T02:30:35.550Z,2.40
2019-05-17T02:33:04.635Z,1.85
2019-05-17T02:35:33.963Z,2.92
2019-05-17T02:38:03.424Z,1.70
2019-05-17T02:40:33.898Z,2.17
2019-05-17T02:43:03.427Z,1.75
2019-05-17T02:45:33.367Z,1.80
2019-05-17T02:48:03.925Z,2.17
2019-05-17T02:50:33.464Z,2.60
2019-05-17T02:53:04.729Z,2.15
2019-05-17T02:55:33.713Z,3.15
2019-05-17T02:58:03.687Z,2.45
2019-05-17T03:00:33.804Z,2.27
2019-05-17T03:03:03.743Z,2.25
2019-05-17T03:05:33.752Z,2.62
2019-05-17T03:08:04.014Z,2.55
2019-05-17T03:10:33.977Z,3.20
2019-05-17T03:13:04.070Z,1.62
2019-05-17T03:15:33.560Z,1.87
2019-05-17T03:18:03.892Z,1.67
2019-05-17T03:20:33.057Z,1.92
2019-05-17T03:23:03.902Z,3.37
2019-05-17T03:25:33.329Z,2.17
2019-05-17T03:28:03.477Z,2.30
2019-05-17T03:30:36.678Z,2.20
2019-05-17T03:33:07.164Z,1.70
2019-05-17T03:35:37.586Z,2.10
2019-05-17T03:38:06.537Z,3.52
2019-05-17T03:41:03.513Z,1.85
2019-05-17T03:43:06.109Z,2.10
2019-05-17T03:45:34.931Z,2.60
2019-05-17T03:48:05.129Z,2.20
2019-05-17T03:50:34.338Z,2.77
2019-05-17T03:53:03.266Z,2.60
2019-05-17T03:55:33.145Z,2.05
2019-05-17T03:58:03.541Z,2.80
2019-05-17T04:00:35.314Z,1.80
2019-05-17T04:03:03.295Z,2.72
2019-05-17T04:05:33.388Z,2.00
2019-05-17T04:08:03.679Z,2.35
2019-05-17T04:10:33.646Z,3.37
2019-05-17T04:13:04.295Z,3.70
2019-05-17T04:15:34.320Z,2.30
2019-05-17T04:18:04.247Z,3.20
2019-05-17T04:20:33.806Z,2.50
2019-05-17T04:23:03.995Z,4.28
2019-05-17T04:25:33.628Z,2.83
2019-05-17T04:28:03.387Z,2.10
2019-05-17T04:30:32.938Z,1.90
2019-05-17T04:33:03.338Z,2.37
2019-05-17T04:35:32.835Z,2.25
2019-05-17T04:38:04.058Z,3.40
2019-05-17T04:40:33.951Z,3.92
2019-05-17T04:43:03.798Z,2.58
2019-05-17T04:45:33.884Z,2.10
2019-05-17T04:48:04.177Z,4.70
2019-05-17T04:50:34.824Z,3.67
2019-05-17T04:53:03.542Z,2.83
2019-05-17T04:55:34.280Z,3.30
2019-05-17T04:58:04.242Z,5.67
2019-05-17T05:00:34.304Z,3.62
2019-05-17T05:03:04.435Z,5.97
2019-05-17T05:05:33.607Z,3.95
2019-05-17T05:08:03.264Z,4.53
2019-05-17T05:10:33.988Z,6.90
2019-05-17T05:13:03.526Z,3.40
2019-05-17T05:15:44.443Z,3.52
2019-05-17T05:18:13.784Z,2.65
2019-05-17T05:20:43.612Z,3.98
2019-05-17T05:23:13.697Z,4.05
2019-05-17T05:25:43.415Z,2.55
2019-05-17T05:28:12.487Z,3.65
2019-05-17T05:30:42.808Z,3.05
2019-05-17T05:33:12.907Z,4.33
2019-05-17T05:35:42.453Z,3.62
2019-05-17T05:38:12.954Z,5.25
2019-05-17T05:40:43.767Z,2.77
2019-05-17T05:43:12.920Z,4.10
2019-05-17T05:45:41.915Z,3.83
2019-05-17T05:48:12.783Z,2.40
2019-05-17T05:50:43.366Z,2.33
2019-05-17T05:53:12.908Z,3.75
2019-05-17T05:55:43.161Z,3.17
2019-05-17T05:58:12.642Z,2.47
2019-05-17T06:00:42.802Z,3.95
2019-05-17T06:03:12.405Z,3.17
2019-05-17T06:05:42.480Z,3.45
2019-05-17T06:08:12.224Z,2.50
2019-05-17T06:10:42.479Z,3.75
2019-05-17T06:13:12.968Z,2.90
2019-05-17T06:15:42.934Z,3.05
2019-05-17T06:18:12.589Z,3.25
2019-05-17T06:20:42.116Z,3.20
2019-05-17T06:23:12.256Z,3.90
2019-05-17T06:25:43.501Z,3.35
2019-05-17T06:28:11.794Z,3.10
2019-05-17T06:30:43.120Z,3.00
2019-05-17T06:33:13.389Z,2.95
2019-05-17T06:35:42.291Z,2.75
2019-05-17T06:38:33.017Z,2.50
2019-05-17T06:41:01.955Z,2.52
2019-05-17T06:43:32.298Z,2.75
2019-05-17T06:46:01.796Z,3.87
2019-05-17T06:48:31.769Z,3.40
2019-05-17T06:51:02.578Z,2.65
2019-05-17T06:53:32.389Z,3.12
2019-05-17T06:56:02.716Z,5.40
2019-05-17T06:58:31.703Z,2.33
2019-05-17T07:01:01.047Z,3.35
2019-05-17T07:03:30.089Z,2.90
2019-05-17T07:06:00.478Z,4.67
2019-05-17T07:08:30.071Z,4.20
2019-05-17T07:10:59.755Z,2.30
2019-05-17T07:13:30.136Z,1.70
2019-05-17T07:15:59.723Z,4.20
2019-05-17T07:18:30.055Z,2.55
2019-05-17T07:21:02.857Z,3.40
2019-05-17T07:23:30.309Z,2.20
2019-05-17T07:25:59.630Z,3.35
2019-05-17T07:28:30.171Z,2.30
2019-05-17T07:30:59.613Z,2.20
2019-05-17T07:33:30.589Z,3.22
2019-05-17T07:35:59.850Z,2.87
2019-05-17T07:38:30.308Z,2.27
2019-05-17T07:40:59.538Z,3.27
2019-05-17T07:43:29.807Z,2.67
2019-05-17T07:46:00.410Z,2.47
2019-05-17T07:48:31.338Z,3.47
2019-05-17T07:50:59.563Z,2.55
2019-05-17T07:53:30.472Z,1.65
2019-05-17T07:55:59.600Z,2.52
2019-05-17T07:58:29.900Z,3.80
2019-05-17T08:01:01.858Z,3.62
2019-05-17T08:03:29.860Z,2.60
2019-05-17T08:06:00.061Z,2.52
2019-05-17T08:08:31.015Z,2.00
2019-05-17T08:11:00.299Z,2.10
2019-05-17T08:13:31.342Z,2.12
2019-05-17T08:16:00.428Z,3.25
2019-05-17T08:18:29.603Z,3.62
2019-05-17T08:20:59.753Z,2.95
2019-05-17T08:23:30.439Z,2.90
2019-05-17T08:26:00.428Z,1.98
2019-05-17T08:28:31.343Z,4.08
2019-05-17T08:31:00.977Z,2.22
2019-05-17T08:33:31.116Z,2.15
2019-05-17T08:36:00.947Z,3.10
2019-05-17T08:38:30.505Z,2.62
2019-05-17T08:41:00.615Z,1.85
2019-05-17T08:43:39.461Z,1.37
2019-05-17T08:46:02.041Z,1.75
2019-05-17T08:48:30.567Z,2.27
2019-05-17T08:51:00.187Z,1.80
2019-05-17T08:53:30.582Z,1.62
2019-05-17T08:56:01.033Z,2.12
2019-05-17T08:58:30.222Z,2.40
2019-05-17T09:01:00.236Z,2.05
2019-05-17T09:03:30.391Z,1.98
2019-05-17T09:06:02.350Z,2.98
2019-05-17T09:08:30.107Z,2.85
2019-05-17T09:11:00.377Z,1.77
2019-05-17T09:13:29.801Z,1.90
2019-05-17T09:16:00.288Z,1.85
2019-05-17T09:18:30.225Z,2.83
2019-05-17T09:21:00.278Z,2.45
2019-05-17T09:23:30.389Z,1.90
2019-05-17T09:25:59.816Z,2.10
2019-05-17T09:28:29.999Z,1.70
2019-05-17T09:30:59.919Z,2.75
2019-05-17T09:33:30.019Z,2.70
2019-05-17T09:36:00.879Z,3.30
2019-05-17T09:38:29.641Z,1.90
2019-05-17T09:41:00.024Z,2.30
2019-05-17T09:43:29.548Z,2.40
2019-05-17T09:46:01.250Z,2.12
2019-05-17T09:48:30.668Z,1.55
2019-05-17T09:51:00.017Z,2.08
2019-05-17T09:53:30.775Z,1.25
2019-05-17T09:56:00.508Z,3.25
2019-05-17T09:58:30.140Z,2.60
2019-05-17T10:01:01.297Z,2.85
2019-05-17T10:03:30.702Z,3.27
2019-05-17T10:06:00.155Z,3.60
2019-05-17T10:08:29.058Z,3.47
2019-05-17T10:11:05.930Z,3.15
2019-05-17T10:13:29.810Z,2.75
2019-05-17T10:16:00.474Z,2.62
2019-05-17T10:18:29.587Z,2.22
2019-05-17T10:20:59.818Z,3.02
2019-05-17T10:23:29.908Z,2.10
2019-05-17T10:25:59.559Z,4.00
2019-05-17T10:28:28.641Z,3.30
2019-05-17T10:30:57.400Z,2.40
2019-05-17T10:33:26.150Z,2.80
2019-05-17T10:35:56.038Z,3.55
2019-05-17T10:38:24.743Z,2.30
2019-05-17T10:40:53.344Z,3.98
2019-05-17T10:43:23.739Z,2.50
2019-05-17T10:45:52.567Z,3.15
2019-05-17T10:48:21.505Z,2.08
2019-05-17T10:50:50.431Z,2.52
2019-05-17T10:53:20.400Z,2.47
2019-05-17T10:55:49.774Z,2.90
2019-05-17T10:58:21.174Z,2.60
2019-05-17T11:00:50.132Z,3.70
2019-05-17T11:03:20.383Z,2.77
2019-05-17T11:05:50.281Z,4.55
2019-05-17T11:08:19.847Z,2.98
2019-05-17T11:10:50.147Z,4.15
2019-05-17T11:13:19.188Z,3.12
2019-05-17T11:15:47.806Z,7.67
2019-05-17T11:18:16.422Z,2.87
2019-05-17T11:20:45.514Z,3.45
2019-05-17T11:23:14.265Z,2.92
2019-05-17T11:25:45.849Z,3.33
2019-05-17T11:28:13.723Z,2.67
2019-05-17T11:30:43.006Z,2.90
2019-05-17T11:33:11.866Z,3.55
2019-05-17T11:35:40.619Z,2.60
2019-05-17T11:38:09.572Z,3.20
2019-05-17T11:40:38.291Z,2.12
2019-05-17T11:43:08.929Z,2.90
2019-05-17T11:45:37.691Z,2.35
2019-05-17T11:48:06.554Z,1.80
2019-05-17T11:50:35.098Z,2.12
2019-05-17T11:53:03.881Z,5.53
2019-05-17T11:55:32.676Z,2.70
2019-05-17T11:58:01.595Z,2.62
2019-05-17T12:00:30.778Z,2.47
2019-05-17T12:02:59.444Z,2.60
2019-05-17T12:05:28.231Z,2.05
2019-05-17T12:07:57.248Z,2.17
2019-05-17T12:10:26.229Z,1.42
2019-05-17T12:12:54.874Z,4.65
2019-05-17T12:15:23.482Z,2.45
2019-05-17T12:17:52.153Z,2.30
2019-05-17T12:20:21.455Z,2.35
2019-05-17T12:22:50.142Z,2.47
2019-05-17T12:25:18.863Z,2.83
2019-05-17T12:27:47.547Z,3.05
2019-05-17T12:30:16.814Z,4.10
2019-05-17T12:32:45.492Z,2.45
2019-05-17T12:35:14.219Z,3.20
2019-05-17T12:37:43.007Z,2.70
2019-05-17T12:40:12.198Z,2.72
2019-05-17T12:42:40.845Z,2.33
2019-05-17T12:45:10.080Z,3.17
2019-05-17T12:47:38.813Z,3.72
2019-05-17T12:50:09.643Z,2.50
2019-05-17T12:52:38.297Z,2.22
2019-05-17T12:55:07.771Z,2.30
2019-05-17T12:57:37.231Z,5.25
2019-05-17T13:00:12.905Z,2.20
2019-05-17T13:02:41.511Z,2.08
2019-05-17T13:05:10.519Z,2.00
2019-05-17T13:07:40.618Z,2.40
2019-05-17T13:10:10.324Z,2.60
2019-05-17T13:12:38.912Z,2.50
2019-05-17T13:15:08.901Z,2.60
2019-05-17T13:17:37.483Z,2.70
2019-05-17T13:20:08.483Z,2.30
2019-05-17T13:22:37.343Z,3.65
2019-05-17T13:25:09.618Z,2.60
2019-05-17T13:30:09.787Z,2.87
2019-05-17T13:32:38.653Z,1.75
2019-05-17T13:35:09.740Z,2.30
2019-05-17T13:37:38.454Z,2.98
2019-05-17T13:40:07.948Z,2.30
2019-05-17T13:42:36.725Z,2.83
2019-05-17T13:45:06.457Z,5.45
2019-05-17T13:47:35.614Z,2.92
2019-05-17T13:50:06.364Z,3.22
2019-05-17T13:52:35.179Z,3.30
2019-05-17T13:55:06.501Z,2.40
2019-05-17T13:57:35.319Z,4.22
2019-05-17T14:00:08.679Z,2.75
2019-05-17T14:02:37.544Z,3.33
2019-05-17T14:05:07.456Z,3.70
2019-05-17T14:07:36.697Z,3.55
2019-05-17T14:10:24.604Z,2.50
2019-05-17T14:12:39.008Z,2.37
2019-05-17T14:15:11.710Z,2.50
2019-05-17T14:17:40.298Z,3.55
2019-05-17T14:20:09.375Z,2.50
2019-05-17T14:22:38.381Z,2.80
2019-05-17T14:25:07.854Z,4.05
2019-05-17T14:27:36.579Z,3.90
2019-05-17T14:30:08.920Z,2.02
2019-05-17T14:35:06.630Z,2.27
2019-05-17T14:37:35.254Z,3.30
2019-05-17T14:40:06.606Z,2.92
2019-05-17T14:42:35.187Z,2.10
2019-05-17T14:45:05.694Z,2.02
2019-05-17T14:47:34.396Z,2.37
2019-05-17T14:50:04.739Z,3.77
2019-05-17T14:52:33.389Z,2.60
2019-05-17T14:55:02.856Z,4.50
2019-05-17T14:57:31.511Z,2.15
2019-05-17T15:00:00.634Z,2.58
2019-05-17T15:02:29.895Z,1.70
2019-05-17T15:04:58.477Z,1.72
2019-05-17T15:07:27.591Z,2.20
2019-05-17T15:09:56.910Z,3.00
2019-05-17T15:12:28.738Z,1.82
2019-05-17T15:14:55.971Z,1.62
2019-05-17T15:17:24.710Z,2.02
2019-05-17T15:19:53.374Z,1.98
2019-05-17T15:22:22.709Z,2.17
2019-05-17T15:24:51.580Z,2.62
2019-05-17T15:27:20.301Z,3.90
2019-05-17T15:29:49.131Z,2.35
2019-05-17T15:32:17.862Z,2.87
2019-05-17T15:34:46.787Z,2.60
2019-05-17T15:37:15.473Z,2.37
2019-05-17T15:39:44.168Z,2.08
2019-05-17T15:42:12.859Z,1.70
2019-05-17T15:44:41.829Z,2.25
2019-05-17T15:47:10.489Z,2.10
2019-05-17T15:49:39.199Z,2.87
2019-05-17T15:52:07.983Z,2.40
2019-05-17T15:54:36.725Z,1.25
2019-05-17T15:57:07.283Z,1.57
2019-05-17T15:59:35.843Z,2.30
2019-05-17T16:02:04.648Z,1.22
2019-05-17T16:04:33.273Z,2.33
2019-05-17T16:07:01.894Z,1.60
2019-05-17T16:09:30.597Z,6.53
2019-05-17T16:11:59.472Z,2.10
2019-05-17T16:14:28.182Z,1.95
2019-05-17T16:16:57.012Z,2.37
2019-05-17T16:19:25.865Z,2.08
2019-05-17T16:21:54.893Z,1.67
2019-05-17T16:24:23.737Z,2.20
2019-05-17T16:26:52.690Z,2.15
2019-05-17T16:29:21.362Z,2.15
2019-05-17T16:31:50.194Z,1.92
2019-05-17T16:34:18.806Z,1.70
2019-05-17T16:36:47.634Z,1.77
2019-05-17T16:39:16.425Z,1.77
2019-05-17T16:41:45.267Z,1.52
2019-05-17T16:44:14.757Z,1.70
2019-05-17T16:46:43.799Z,1.80
2019-05-17T16:49:12.543Z,1.85
2019-05-17T16:51:41.505Z,1.82
2019-05-17T16:54:13.432Z,1.98
2019-05-17T16:56:42.019Z,1.80
2019-05-17T16:59:11.237Z,3.65
2019-05-17T17:01:40.028Z,1.90
2019-05-17T17:04:08.645Z,1.45
2019-05-17T17:06:37.346Z,2.42
2019-05-17T17:09:07.209Z,5.83
2019-05-17T17:11:35.809Z,2.00
2019-05-17T17:14:04.855Z,2.22
2019-05-17T17:16:33.626Z,2.17
2019-05-17T17:19:02.590Z,2.62
2019-05-17T17:21:33.081Z,1.80
2019-05-17T17:24:01.993Z,1.70
2019-05-17T17:26:31.019Z,1.67
2019-05-17T17:28:59.615Z,2.10
2019-05-17T17:31:28.401Z,1.70
2019-05-17T17:33:57.052Z,1.85
2019-05-17T17:36:25.868Z,2.25
2019-05-17T17:38:54.619Z,2.60
2019-05-17T17:41:26.282Z,1.90
2019-05-17T17:43:58.369Z,1.80
2019-05-17T17:46:23.877Z,9.35
2019-05-17T17:48:52.658Z,1.70
2019-05-17T17:51:22.849Z,1.72
2019-05-17T17:53:51.490Z,1.65
2019-05-17T17:56:20.482Z,3.27
2019-05-17T17:58:49.236Z,1.65
2019-05-17T18:01:17.924Z,1.50
2019-05-17T18:03:46.590Z,1.40
2019-05-17T18:06:15.272Z,1.70
2019-05-17T18:08:43.971Z,1.62
2019-05-17T18:11:12.764Z,1.42
2019-05-17T18:13:41.429Z,1.70
2019-05-17T18:16:10.104Z,1.50
2019-05-17T18:18:38.732Z,2.25
2019-05-17T18:21:07.626Z,1.85
2019-05-17T18:23:36.409Z,3.47
2019-05-17T18:26:06.010Z,1.92
2019-05-17T18:28:34.706Z,5.62
2019-05-17T18:31:03.587Z,1.70
2019-05-17T18:33:32.332Z,1.47
2019-05-17T18:36:00.990Z,1.82
2019-05-17T18:38:31.691Z,3.55
2019-05-17T18:41:00.298Z,2.27
2019-05-17T18:43:29.403Z,2.55
2019-05-17T18:45:58.114Z,2.58
2019-05-17T18:48:26.834Z,2.45
2019-05-17T18:50:55.490Z,1.98
2019-05-17T18:53:24.208Z,2.47
2019-05-17T18:55:52.877Z,2.92
2019-05-17T18:58:21.566Z,2.22
2019-05-17T19:00:50.555Z,2.50
2019-05-17T19:03:19.121Z,3.00
2019-05-17T19:05:47.763Z,2.05
2019-05-17T19:08:16.363Z,2.40
2019-05-17T19:10:45.073Z,1.67
2019-05-17T19:13:13.773Z,2.10
2019-05-17T19:15:42.654Z,2.60
2019-05-17T19:18:11.191Z,2.80
2019-05-17T19:20:40.027Z,2.72
2019-05-17T19:23:08.675Z,3.10
2019-05-17T19:25:37.274Z,4.90
2019-05-17T19:28:05.975Z,5.30
2019-05-17T19:30:38.454Z,3.47
2019-05-17T19:33:09.304Z,4.20
2019-05-17T19:35:38.062Z,5.45
2019-05-17T19:38:06.814Z,7.58
2019-05-17T19:40:35.695Z,8.88
2019-05-17T19:43:04.316Z,13.05
2019-05-17T19:45:33.171Z,14.70
2019-05-17T19:48:01.823Z,12.45
2019-05-17T19:50:30.641Z,9.45
2019-05-17T19:52:59.295Z,6.80
2019-05-17T19:55:27.859Z,6.12
2019-05-17T19:57:56.562Z,5.03
2019-05-17T20:00:25.972Z,5.22
2019-05-17T20:02:54.592Z,6.15
2019-05-17T20:05:23.256Z,6.92
2019-05-17T20:07:51.955Z,5.83
2019-05-17T20:10:21.191Z,6.03
2019-05-17T20:12:50.057Z,5.20
2019-05-17T20:15:33.645Z,4.28
2019-05-17T20:17:50.480Z,4.83
2019-05-17T20:20:19.445Z,3.65
2019-05-17T20:22:48.369Z,2.90
2019-05-17T20:25:17.336Z,3.10
2019-05-17T20:27:45.988Z,2.90
2019-05-17T20:30:16.514Z,2.35
2019-05-17T20:32:45.178Z,3.00
2019-05-17T20:35:17.721Z,2.80
2019-05-17T20:37:44.852Z,3.33
2019-05-17T20:40:13.957Z,2.65
2019-05-17T20:42:42.721Z,3.15
2019-05-17T20:45:12.317Z,2.98
2019-05-17T20:47:41.145Z,2.70
2019-05-17T20:50:10.549Z,2.67
2019-05-17T20:52:39.409Z,2.62
2019-05-17T20:55:09.117Z,2.20
2019-05-17T20:57:38.027Z,2.45
2019-05-17T21:00:08.191Z,2.40
2019-05-17T21:02:36.881Z,3.05
2019-05-17T21:05:07.766Z,2.10
2019-05-17T21:07:36.526Z,2.62
2019-05-17T21:10:08.417Z,2.47
2019-05-17T21:12:37.046Z,2.47
2019-05-17T21:15:07.558Z,2.30
2019-05-17T21:17:36.357Z,2.72
2019-05-17T21:20:08.857Z,2.80
2019-05-17T21:22:37.441Z,3.72
2019-05-17T21:25:09.561Z,2.17
2019-05-17T21:27:38.135Z,2.55
2019-05-17T21:30:08.353Z,2.85
2019-05-17T21:32:37.081Z,2.45
2019-05-17T21:35:06.590Z,2.75
2019-05-17T21:37:35.685Z,2.15
2019-05-17T21:40:07.708Z,2.35
2019-05-17T21:42:36.362Z,2.30
2019-05-17T21:45:08.999Z,2.83
2019-05-17T21:47:38.201Z,2.62
2019-05-17T21:50:07.699Z,2.17
2019-05-17T21:52:36.381Z,2.50
2019-05-17T21:55:05.486Z,2.27
2019-05-17T21:57:34.385Z,2.40
2019-05-17T22:00:03.179Z,2.20
2019-05-17T22:02:31.969Z,2.30
2019-05-17T22:05:00.598Z,2.58
2019-05-17T22:07:29.224Z,2.47
2019-05-17T22:09:57.936Z,2.65
2019-05-17T22:12:26.532Z,2.00
2019-05-17T22:14:55.304Z,2.20
2019-05-17T22:17:23.912Z,3.08
2019-05-17T22:19:52.496Z,2.42
2019-05-17T22:22:21.062Z,3.02
2019-05-17T22:24:49.631Z,2.22
2019-05-17T22:27:18.227Z,2.40
2019-05-17T22:29:46.970Z,2.37
2019-05-17T22:32:15.706Z,2.70
2019-05-17T22:34:44.518Z,2.42
2019-05-17T22:37:13.089Z,2.33
2019-05-17T22:39:42.000Z,1.92
2019-05-17T22:42:10.559Z,2.72
2019-05-17T22:44:39.172Z,2.27
2019-05-17T22:47:07.797Z,2.40
2019-05-17T22:49:36.519Z,2.30
2019-05-17T22:52:05.157Z,2.52
2019-05-17T22:54:33.754Z,2.20
2019-05-17T22:57:02.484Z,2.67
2019-05-17T22:59:31.038Z,2.40
2019-05-17T23:01:59.723Z,2.52
2019-05-17T23:04:28.667Z,3.12
2019-05-17T23:06:57.386Z,3.25
2019-05-17T23:09:26.051Z,2.80
2019-05-17T23:11:54.891Z,2.87
2019-05-17T23:14:23.522Z,2.30
2019-05-17T23:16:52.266Z,2.72
2019-05-17T23:19:21.096Z,2.30
2019-05-17T23:21:49.660Z,2.40
2019-05-17T23:24:18.382Z,2.60
2019-05-17T23:26:47.061Z,2.98
2019-05-17T23:29:15.718Z,2.67
2019-05-17T23:31:44.309Z,2.98
2019-05-17T23:34:12.979Z,3.98
2019-05-17T23:36:41.722Z,2.75
2019-05-17T23:39:10.342Z,2.98
2019-05-17T23:41:38.995Z,2.22
2019-05-17T23:44:07.654Z,2.83
2019-05-17T23:46:36.435Z,2.37
2019-05-17T23:49:05.166Z,2.40
2019-05-17T23:51:33.783Z,2.33
2019-05-17T23:54:02.453Z,2.52
2019-05-17T23:56:31.119Z,2.50
2019-05-17T23:58:59.784Z,2.27
